Applegate, Oregon
Current Conditions -  °F | °C
As of 7:53 PM on Monday 22 Dec 2014 (Local Time) from KMFR Reporting Station
Overcast Overcast  
Wind Chill: 13°   Ceiling: 4200
Heat Index: 13°   Visibility: 10mi
Dew Point: 11°   Wind: 5mph
Humidity: 87%   Direction: 350°N
Pressure: 30.33"   Gusts: NA
Location:  42.1499°N, 123.043°W
Report Text: KMFR 230353Z 35004KT 10SM OVC042 13/11 A3033 RMK AO2 SLP269 T01330111
Loading
Personal Weather Stations






























Interactive Weather Map New forecast layout! Learn more

10-Day Weather Forecast

Advertisements
Track Severe Weather on mobile